createdAt,value
2019-03-27T00:02:12.699Z,9.75
2019-03-27T00:04:41.152Z,10.68
2019-03-27T00:07:09.608Z,10.05
2019-03-27T00:09:38.056Z,10.13
2019-03-27T00:12:06.592Z,10.03
2019-03-27T00:14:35.041Z,10.30
2019-03-27T00:17:03.516Z,10.28
2019-03-27T00:19:31.981Z,9.73
2019-03-27T00:22:00.494Z,9.85
2019-03-27T00:24:28.959Z,10.32
2019-03-27T00:26:57.411Z,11.65
2019-03-27T00:29:25.859Z,10.05
2019-03-27T00:31:54.345Z,10.78
2019-03-27T00:34:22.801Z,10.98
2019-03-27T00:36:51.253Z,10.63
2019-03-27T00:39:19.717Z,11.03
2019-03-27T00:41:48.166Z,10.60
2019-03-27T00:44:16.614Z,11.45
2019-03-27T00:46:45.087Z,11.08
2019-03-27T00:49:13.529Z,10.93
2019-03-27T00:51:41.984Z,11.18
2019-03-27T00:54:10.455Z,11.48
2019-03-27T00:56:38.904Z,11.70
2019-03-27T00:59:07.352Z,12.47
2019-03-27T01:01:35.836Z,12.37
2019-03-27T01:04:04.276Z,11.95
2019-03-27T01:06:32.728Z,12.37
2019-03-27T01:09:01.189Z,12.20
2019-03-27T01:11:29.632Z,12.65
2019-03-27T01:13:58.133Z,13.72
2019-03-27T01:16:26.620Z,12.82
2019-03-27T01:18:55.080Z,13.48
2019-03-27T01:21:23.530Z,13.32
2019-03-27T01:23:52.016Z,12.88
2019-03-27T01:26:20.460Z,14.87
2019-03-27T01:28:48.919Z,13.80
2019-03-27T01:31:17.469Z,11.85
2019-03-27T01:33:45.922Z,13.18
2019-03-27T01:36:14.374Z,12.63
2019-03-27T01:38:42.859Z,13.10
2019-03-27T01:41:11.312Z,12.70
2019-03-27T01:43:39.763Z,13.48
2019-03-27T01:46:08.220Z,12.70
2019-03-27T01:48:36.675Z,13.80
2019-03-27T01:51:05.125Z,14.07
2019-03-27T01:53:33.589Z,14.05
2019-03-27T01:56:02.039Z,14.05
2019-03-27T01:58:30.503Z,13.80
2019-03-27T02:00:58.951Z,12.82
2019-03-27T02:03:27.444Z,12.88
2019-03-27T02:05:55.935Z,12.58
2019-03-27T02:08:27.088Z,14.10
2019-03-27T02:10:55.545Z,14.18
2019-03-27T02:13:23.995Z,13.10
2019-03-27T02:16:05.826Z,12.80
2019-03-27T02:18:22.617Z,12.90
2019-03-27T02:20:51.081Z,13.53
2019-03-27T02:23:19.527Z,12.37
2019-03-27T02:25:48.004Z,13.28
2019-03-27T02:28:16.485Z,12.55
2019-03-27T02:30:44.959Z,12.78
2019-03-27T02:33:13.435Z,14.25
2019-03-27T02:35:41.884Z,12.63
2019-03-27T02:38:10.340Z,13.45
2019-03-27T02:40:38.879Z,14.10
2019-03-27T02:43:07.396Z,12.70
2019-03-27T02:45:35.846Z,14.20
2019-03-27T02:48:04.328Z,15.08
2019-03-27T02:50:32.848Z,13.70
2019-03-27T02:53:01.394Z,12.88
2019-03-27T02:55:29.967Z,13.68
2019-03-27T02:57:58.414Z,14.23
2019-03-27T03:00:26.859Z,14.95
2019-03-27T03:02:55.327Z,14.33
2019-03-27T03:05:23.764Z,13.88
2019-03-27T03:07:52.220Z,14.43
2019-03-27T03:10:21.266Z,15.68
2019-03-27T03:12:49.764Z,15.38
2019-03-27T03:15:20.620Z,14.45
2019-03-27T03:17:49.624Z,15.88
2019-03-27T03:20:18.073Z,16.15
2019-03-27T03:22:46.599Z,15.18
2019-03-27T03:25:15.215Z,15.40
2019-03-27T03:27:43.662Z,16.65
2019-03-27T03:30:12.580Z,16.55
2019-03-27T03:32:41.100Z,15.65
2019-03-27T03:35:10.498Z,15.50
2019-03-27T03:37:39.003Z,15.50
2019-03-27T03:40:08.501Z,16.48
2019-03-27T03:42:37.498Z,15.85
2019-03-27T03:45:07.758Z,15.98
2019-03-27T03:47:36.273Z,16.50
2019-03-27T03:50:07.156Z,17.40
2019-03-27T03:52:35.753Z,16.48
2019-03-27T03:55:05.949Z,16.62
2019-03-27T03:57:37.136Z,15.88
2019-03-27T04:00:07.666Z,15.03
2019-03-27T04:02:36.616Z,16.57
2019-03-27T04:05:07.276Z,15.75
2019-03-27T04:07:35.747Z,17.23
2019-03-27T04:10:05.172Z,16.95
2019-03-27T04:12:33.632Z,16.57
2019-03-27T04:15:02.231Z,16.40
2019-03-27T04:17:31.008Z,16.42
2019-03-27T04:19:59.452Z,18.35
2019-03-27T04:22:27.907Z,17.52
2019-03-27T04:24:56.367Z,17.40
2019-03-27T04:27:24.820Z,18.12
2019-03-27T04:29:53.276Z,18.07
2019-03-27T04:32:21.747Z,18.98
2019-03-27T04:34:50.239Z,17.45
2019-03-27T04:37:18.710Z,17.45
2019-03-27T04:39:47.170Z,16.35
2019-03-27T04:42:15.705Z,19.00
2019-03-27T04:44:44.152Z,16.90
2019-03-27T04:47:12.608Z,17.65
2019-03-27T04:49:41.130Z,18.15
2019-03-27T04:52:09.651Z,17.45
2019-03-27T04:54:38.138Z,17.48
2019-03-27T04:57:06.652Z,17.17
2019-03-27T04:59:35.098Z,18.60
2019-03-27T05:02:06.515Z,19.00
2019-03-27T05:04:34.203Z,19.60
2019-03-27T05:07:02.673Z,17.77
2019-03-27T05:09:31.147Z,18.27
2019-03-27T05:11:59.603Z,18.00
2019-03-27T05:14:28.055Z,19.30
2019-03-27T05:16:56.508Z,19.20
2019-03-27T05:19:24.956Z,19.55
2019-03-27T05:21:53.405Z,19.37
2019-03-27T05:24:21.858Z,19.02
2019-03-27T05:26:50.309Z,18.62
2019-03-27T05:29:18.764Z,19.23
2019-03-27T05:31:47.224Z,20.20
2019-03-27T05:34:15.664Z,19.62
2019-03-27T05:36:44.112Z,20.75
2019-03-27T05:39:14.551Z,19.95
2019-03-27T05:41:42.752Z,20.60
2019-03-27T05:44:11.228Z,20.97
2019-03-27T05:46:41.326Z,18.92
2019-03-27T05:49:09.797Z,19.60
2019-03-27T05:51:38.248Z,20.23
2019-03-27T05:54:06.712Z,18.87
2019-03-27T05:56:35.237Z,17.73
2019-03-27T05:59:03.683Z,18.20
2019-03-27T06:01:32.157Z,19.40
2019-03-27T06:04:00.615Z,18.50
2019-03-27T06:06:29.086Z,19.42
2019-03-27T06:08:57.532Z,19.42
2019-03-27T06:11:25.982Z,19.80
2019-03-27T06:13:54.502Z,19.95
2019-03-27T06:16:25.764Z,18.45
2019-03-27T06:18:54.239Z,19.00
2019-03-27T06:21:22.791Z,19.42
2019-03-27T06:23:51.314Z,19.42
2019-03-27T06:26:19.801Z,19.60
2019-03-27T06:28:48.243Z,20.08
2019-03-27T06:31:16.798Z,18.25
2019-03-27T06:33:45.247Z,19.07
2019-03-27T06:36:13.763Z,19.62
2019-03-27T06:38:42.235Z,20.02
2019-03-27T06:41:10.691Z,18.40
2019-03-27T06:43:40.721Z,19.30
2019-03-27T06:46:09.177Z,17.45
2019-03-27T06:48:38.483Z,18.12
2019-03-27T06:51:06.936Z,17.62
2019-03-27T06:53:35.391Z,17.23
2019-03-27T06:56:03.847Z,19.90
2019-03-27T06:58:32.317Z,20.35
2019-03-27T07:01:00.787Z,19.12
2019-03-27T07:03:29.233Z,21.00
2019-03-27T07:05:57.773Z,20.55
2019-03-27T07:08:26.237Z,21.17
2019-03-27T07:10:54.726Z,19.62
2019-03-27T07:13:23.181Z,19.70
2019-03-27T07:15:51.731Z,21.33
2019-03-27T07:18:20.282Z,20.15
2019-03-27T07:20:48.740Z,20.35
2019-03-27T07:23:17.181Z,19.77
2019-03-27T07:25:45.650Z,20.85
2019-03-27T07:28:14.175Z,19.77
2019-03-27T07:30:42.725Z,20.48
2019-03-27T07:33:11.239Z,18.50
2019-03-27T07:35:39.708Z,20.77
2019-03-27T07:38:08.196Z,19.70
2019-03-27T07:40:36.637Z,19.62
2019-03-27T07:43:05.096Z,17.20
2019-03-27T07:45:33.553Z,21.10
2019-03-27T07:48:02.078Z,19.40
2019-03-27T07:50:32.467Z,18.67
2019-03-27T07:53:00.909Z,19.02
2019-03-27T07:55:29.358Z,18.10
2019-03-27T07:57:57.813Z,18.75
2019-03-27T08:00:26.273Z,20.12
2019-03-27T08:02:54.721Z,18.52
2019-03-27T08:05:27.677Z,19.80
2019-03-27T08:07:56.119Z,17.62
2019-03-27T08:10:24.597Z,18.60
2019-03-27T08:12:53.054Z,18.62
2019-03-27T08:15:21.531Z,19.17
2019-03-27T08:17:50.043Z,19.90
2019-03-27T08:20:18.496Z,20.25
2019-03-27T08:22:46.995Z,19.02
2019-03-27T08:25:16.152Z,18.98
2019-03-27T08:27:44.617Z,19.77
2019-03-27T08:30:14.816Z,19.45
2019-03-27T08:32:43.319Z,18.20
2019-03-27T08:35:12.033Z,19.62
2019-03-27T08:37:40.489Z,19.57
2019-03-27T08:40:09.889Z,19.23
2019-03-27T08:42:38.397Z,17.20
2019-03-27T08:45:10.171Z,18.25
2019-03-27T08:47:38.819Z,16.45
2019-03-27T08:50:08.740Z,17.62
2019-03-27T08:52:37.211Z,20.35
2019-03-27T08:55:06.957Z,20.32
2019-03-27T08:57:35.491Z,19.75
2019-03-27T09:00:08.567Z,19.87
2019-03-27T09:02:37.393Z,19.10
2019-03-27T09:05:07.982Z,20.65
2019-03-27T09:07:36.448Z,18.17
2019-03-27T09:10:07.153Z,18.20
2019-03-27T09:12:36.056Z,19.25
2019-03-27T09:15:07.451Z,19.25
2019-03-27T09:17:36.045Z,18.40
2019-03-27T09:20:07.147Z,18.98
2019-03-27T09:22:35.667Z,22.32
2019-03-27T09:25:05.459Z,19.70
2019-03-27T09:27:33.900Z,17.67
2019-03-27T09:30:02.361Z,19.00
2019-03-27T09:32:30.826Z,18.67
2019-03-27T09:35:00.034Z,19.92
2019-03-27T09:37:28.496Z,18.52
2019-03-27T09:39:56.953Z,18.20
2019-03-27T09:42:25.401Z,18.90
2019-03-27T09:44:53.854Z,18.40
2019-03-27T09:47:22.398Z,19.07
2019-03-27T09:49:50.842Z,19.27
2019-03-27T09:52:19.314Z,18.55
2019-03-27T09:54:47.757Z,19.27
2019-03-27T09:57:16.256Z,18.48
2019-03-27T09:59:46.056Z,18.02
2019-03-27T10:02:14.568Z,17.50
2019-03-27T10:04:43.086Z,16.12
2019-03-27T10:07:11.536Z,17.90
2019-03-27T10:09:40.012Z,17.23
2019-03-27T10:12:08.471Z,17.82
2019-03-27T10:14:36.926Z,16.07
2019-03-27T10:17:05.465Z,15.10
2019-03-27T10:19:34.032Z,15.48
2019-03-27T10:22:02.494Z,14.63
2019-03-27T10:24:30.944Z,14.68
2019-03-27T10:26:59.792Z,15.20
2019-03-27T10:29:28.236Z,15.72
2019-03-27T10:31:56.708Z,16.20
2019-03-27T10:34:25.148Z,15.35
2019-03-27T10:36:53.620Z,14.45
2019-03-27T10:39:22.080Z,13.98
2019-03-27T10:41:50.544Z,13.53
2019-03-27T10:44:19.003Z,14.93
2019-03-27T10:46:47.455Z,12.73
2019-03-27T10:49:15.913Z,13.40
2019-03-27T10:51:44.363Z,16.23
2019-03-27T10:54:12.897Z,12.03
2019-03-27T10:56:41.428Z,11.50
2019-03-27T10:59:09.950Z,11.97
2019-03-27T11:01:38.403Z,11.50
2019-03-27T11:04:06.857Z,12.40
2019-03-27T11:06:35.342Z,11.38
2019-03-27T11:09:05.601Z,10.98
2019-03-27T11:11:34.060Z,11.28
2019-03-27T11:14:02.507Z,10.88
2019-03-27T11:16:30.963Z,11.53
2019-03-27T11:18:59.487Z,11.60
2019-03-27T11:21:27.939Z,12.07
2019-03-27T11:23:56.402Z,12.20
2019-03-27T11:26:24.854Z,11.18
2019-03-27T11:28:53.309Z,13.93
2019-03-27T11:31:21.757Z,11.20
2019-03-27T11:33:50.236Z,13.93
2019-03-27T11:36:18.704Z,16.95
2019-03-27T11:38:47.163Z,14.45
2019-03-27T11:41:15.637Z,12.88
2019-03-27T11:43:54.243Z,11.73
2019-03-27T11:46:14.267Z,11.80
2019-03-27T11:48:42.720Z,13.22
2019-03-27T11:51:11.193Z,12.82
2019-03-27T11:53:39.648Z,13.13
2019-03-27T11:56:08.152Z,13.22
2019-03-27T11:58:36.592Z,13.13
2019-03-27T12:01:05.064Z,12.25
2019-03-27T12:03:33.588Z,11.85
2019-03-27T12:06:02.083Z,11.28
2019-03-27T12:08:30.565Z,13.03
2019-03-27T12:10:59.036Z,12.45
2019-03-27T12:13:27.500Z,12.93
2019-03-27T12:15:55.960Z,11.80
2019-03-27T12:18:24.400Z,12.35
2019-03-27T12:20:58.992Z,12.13
2019-03-27T12:23:23.047Z,12.00
2019-03-27T12:25:51.524Z,11.45
2019-03-27T12:28:19.970Z,10.13
2019-03-27T12:30:48.433Z,11.33
2019-03-27T12:33:16.884Z,11.10
2019-03-27T12:35:45.347Z,10.95
2019-03-27T12:38:13.877Z,10.70
2019-03-27T12:40:42.350Z,11.70
2019-03-27T12:43:10.882Z,11.50
2019-03-27T12:45:39.423Z,13.95
2019-03-27T12:48:08.422Z,11.48
2019-03-27T12:50:37.022Z,11.65
2019-03-27T12:53:05.543Z,10.68
2019-03-27T12:55:34.075Z,11.63
2019-03-27T12:58:02.599Z,11.38
2019-03-27T13:00:31.070Z,11.60
2019-03-27T13:02:59.591Z,9.85
2019-03-27T13:05:28.058Z,10.18
2019-03-27T13:07:56.503Z,9.03
2019-03-27T13:10:24.984Z,9.43
2019-03-27T13:12:53.435Z,11.05
2019-03-27T13:15:21.893Z,10.45
2019-03-27T13:17:50.377Z,10.13
2019-03-27T13:20:20.250Z,10.43
2019-03-27T13:22:48.699Z,9.70
2019-03-27T13:25:17.225Z,9.63
2019-03-27T13:27:47.470Z,9.58
2019-03-27T13:30:16.015Z,9.03
2019-03-27T13:32:44.577Z,10.55
2019-03-27T13:35:13.573Z,9.63
2019-03-27T13:37:42.040Z,9.63
2019-03-27T13:40:11.936Z,9.80
2019-03-27T13:42:40.497Z,9.70
2019-03-27T13:45:10.566Z,10.55
2019-03-27T13:47:39.092Z,9.83
2019-03-27T13:50:12.972Z,10.23
2019-03-27T13:52:41.088Z,10.78
2019-03-27T13:55:09.928Z,10.18
2019-03-27T13:57:38.372Z,9.98
2019-03-27T14:00:10.443Z,10.60
2019-03-27T14:02:38.960Z,8.73
2019-03-27T14:05:07.758Z,8.48
2019-03-27T14:07:36.479Z,7.75
2019-03-27T14:10:08.049Z,8.53
2019-03-27T14:12:36.579Z,8.90
2019-03-27T14:15:08.072Z,11.20
2019-03-27T14:17:36.577Z,10.10
2019-03-27T14:20:24.377Z,10.13
2019-03-27T14:22:52.915Z,10.35
2019-03-27T14:25:22.344Z,9.33
2019-03-27T14:27:51.050Z,9.95
2019-03-27T14:30:22.580Z,9.18
2019-03-27T14:32:51.027Z,10.30
2019-03-27T14:35:19.562Z,9.33
2019-03-27T14:37:48.012Z,9.00
2019-03-27T14:40:16.472Z,8.58
2019-03-27T14:42:44.916Z,9.28
2019-03-27T14:45:13.526Z,9.58
2019-03-27T14:47:42.060Z,8.75
2019-03-27T14:50:11.152Z,9.10
2019-03-27T14:52:39.696Z,8.58
2019-03-27T14:55:08.648Z,8.48
2019-03-27T14:57:37.851Z,8.43
2019-03-27T15:00:09.371Z,7.15
2019-03-27T15:02:37.848Z,7.83
2019-03-27T15:05:07.916Z,8.35
2019-03-27T15:07:36.368Z,6.45
2019-03-27T15:10:07.628Z,6.97
2019-03-27T15:12:36.226Z,6.90
2019-03-27T15:15:07.258Z,7.45
2019-03-27T15:17:35.780Z,8.18
2019-03-27T15:20:07.099Z,7.33
2019-03-27T15:22:36.197Z,7.35
2019-03-27T15:25:08.213Z,7.12
2019-03-27T15:27:36.738Z,7.08
2019-03-27T15:30:08.348Z,7.50
2019-03-27T15:32:37.240Z,7.42
2019-03-27T15:35:06.165Z,7.72
2019-03-27T15:37:34.620Z,7.12
2019-03-27T15:40:03.924Z,7.12
2019-03-27T15:42:32.827Z,6.65
2019-03-27T15:45:02.128Z,6.85
2019-03-27T15:47:30.571Z,6.70
2019-03-27T15:49:59.048Z,8.15
2019-03-27T15:52:36.384Z,9.48
2019-03-27T15:54:57.679Z,6.37
2019-03-27T15:57:26.189Z,6.22
2019-03-27T15:59:54.710Z,7.15
2019-03-27T16:02:23.164Z,6.33
2019-03-27T16:04:51.616Z,7.30
2019-03-27T16:07:20.160Z,6.72
2019-03-27T16:09:48.629Z,8.20
2019-03-27T16:12:17.247Z,8.08
2019-03-27T16:14:45.759Z,7.65
2019-03-27T16:17:14.295Z,7.62
2019-03-27T16:19:42.772Z,6.80
2019-03-27T16:22:11.237Z,6.55
2019-03-27T16:24:39.778Z,6.20
2019-03-27T16:27:08.218Z,7.00
2019-03-27T16:29:36.682Z,6.78
2019-03-27T16:32:05.225Z,6.53
2019-03-27T16:34:33.701Z,8.05
2019-03-27T16:37:02.235Z,6.72
2019-03-27T16:39:30.687Z,7.10
2019-03-27T16:41:59.204Z,7.03
2019-03-27T16:44:27.664Z,7.12
2019-03-27T16:46:56.125Z,7.00
2019-03-27T16:49:24.569Z,7.12
2019-03-27T16:51:56.285Z,8.08
2019-03-27T16:54:23.270Z,7.05
2019-03-27T16:56:51.727Z,6.62
2019-03-27T16:59:20.182Z,7.30
2019-03-27T17:01:48.741Z,7.55
2019-03-27T17:04:20.197Z,7.72
2019-03-27T17:06:48.649Z,7.80
2019-03-27T17:09:17.091Z,7.25
2019-03-27T17:11:45.543Z,7.67
2019-03-27T17:14:13.986Z,13.70
2019-03-27T17:16:42.445Z,8.18
2019-03-27T17:19:10.916Z,7.20
2019-03-27T17:21:39.373Z,7.45
2019-03-27T17:24:07.823Z,6.95
2019-03-27T17:26:36.296Z,6.67
2019-03-27T17:29:04.868Z,7.33
2019-03-27T17:31:33.384Z,6.12
2019-03-27T17:34:01.824Z,6.75
2019-03-27T17:36:30.298Z,6.50
2019-03-27T17:38:58.740Z,7.12
2019-03-27T17:41:28.410Z,6.78
2019-03-27T17:43:57.117Z,6.25
2019-03-27T17:46:25.569Z,7.55
2019-03-27T17:48:54.016Z,6.95
2019-03-27T17:51:22.467Z,6.72
2019-03-27T17:53:50.916Z,6.97
2019-03-27T17:56:19.432Z,7.33
2019-03-27T17:58:47.929Z,7.17
2019-03-27T18:01:16.368Z,7.53
2019-03-27T18:03:44.820Z,7.60
2019-03-27T18:06:13.274Z,7.75
2019-03-27T18:09:00.807Z,9.15
2019-03-27T18:11:29.315Z,7.62
2019-03-27T18:13:57.793Z,8.18
2019-03-27T18:16:26.323Z,8.20
2019-03-27T18:18:54.766Z,8.55
2019-03-27T18:21:23.222Z,9.18
2019-03-27T18:23:51.737Z,9.23
2019-03-27T18:26:20.194Z,8.53
2019-03-27T18:28:48.644Z,8.13
2019-03-27T18:31:17.112Z,8.60
2019-03-27T18:33:45.560Z,9.35
2019-03-27T18:36:14.004Z,9.65
2019-03-27T18:38:45.710Z,9.78
2019-03-27T18:41:12.700Z,10.40
2019-03-27T18:43:41.243Z,10.05
2019-03-27T18:46:09.756Z,11.60
2019-03-27T18:48:38.251Z,10.53
2019-03-27T18:51:06.700Z,10.30
2019-03-27T18:53:35.224Z,10.05
2019-03-27T18:56:03.699Z,9.30
2019-03-27T18:58:32.140Z,9.03
2019-03-27T19:01:00.602Z,9.75
2019-03-27T19:03:29.054Z,11.20
2019-03-27T19:05:57.527Z,9.60
2019-03-27T19:08:25.975Z,9.45
2019-03-27T19:10:54.424Z,9.28
2019-03-27T19:13:22.880Z,9.03
2019-03-27T19:15:51.397Z,10.03
2019-03-27T19:18:19.857Z,10.80
2019-03-27T19:20:48.375Z,10.30
2019-03-27T19:23:17.017Z,9.80
2019-03-27T19:25:45.468Z,9.48
2019-03-27T19:28:13.929Z,10.30
2019-03-27T19:30:42.373Z,10.15
2019-03-27T19:33:10.819Z,9.70
2019-03-27T19:35:39.281Z,10.30
2019-03-27T19:38:07.805Z,9.63
2019-03-27T19:40:36.261Z,10.58
2019-03-27T19:43:04.778Z,11.30
2019-03-27T19:45:33.312Z,11.57
2019-03-27T19:48:01.757Z,11.75
2019-03-27T19:50:30.235Z,11.53
2019-03-27T19:52:58.701Z,10.93
2019-03-27T19:55:27.205Z,12.53
2019-03-27T19:57:56.044Z,11.68
2019-03-27T20:00:24.720Z,12.05
2019-03-27T20:02:53.186Z,10.93
2019-03-27T20:05:21.637Z,13.58
2019-03-27T20:07:50.092Z,12.30
2019-03-27T20:10:18.617Z,11.80
2019-03-27T20:12:52.855Z,12.93
2019-03-27T20:15:21.339Z,12.28
2019-03-27T20:17:49.802Z,11.53
2019-03-27T20:20:18.335Z,10.85
2019-03-27T20:22:46.800Z,11.20
2019-03-27T20:25:17.019Z,12.98
2019-03-27T20:27:45.488Z,13.40
2019-03-27T20:30:16.559Z,13.43
2019-03-27T20:32:45.025Z,15.00
2019-03-27T20:35:13.493Z,14.18
2019-03-27T20:37:42.122Z,14.25
2019-03-27T20:40:11.308Z,13.90
2019-03-27T20:42:39.882Z,12.68
2019-03-27T20:45:08.871Z,13.50
2019-03-27T20:47:37.523Z,11.90
2019-03-27T20:50:08.521Z,12.80
2019-03-27T20:52:37.062Z,12.07
2019-03-27T20:55:06.739Z,12.05
2019-03-27T20:57:35.196Z,14.00
2019-03-27T21:00:05.795Z,12.47
2019-03-27T21:02:34.242Z,13.15
2019-03-27T21:05:02.738Z,13.05
2019-03-27T21:07:31.201Z,12.58
2019-03-27T21:09:59.735Z,12.53
2019-03-27T21:12:29.942Z,13.68
2019-03-27T21:14:59.696Z,13.55
2019-03-27T21:17:28.312Z,12.73
2019-03-27T21:20:05.541Z,14.00
2019-03-27T21:22:34.003Z,13.28
2019-03-27T21:25:08.457Z,13.05
2019-03-27T21:27:32.693Z,12.60
2019-03-27T21:30:01.227Z,13.55
2019-03-27T21:32:29.762Z,14.73
2019-03-27T21:34:58.277Z,14.70
2019-03-27T21:37:26.784Z,13.60
2019-03-27T21:39:55.327Z,13.50
2019-03-27T21:42:23.805Z,13.85
2019-03-27T21:44:52.317Z,14.28
2019-03-27T21:47:23.434Z,13.05
2019-03-27T21:49:51.887Z,12.45
2019-03-27T21:52:20.343Z,12.33
2019-03-27T21:54:48.834Z,13.32
2019-03-27T21:57:17.294Z,12.93
2019-03-27T21:59:45.942Z,12.80
2019-03-27T22:02:14.568Z,16.93
2019-03-27T22:04:43.091Z,13.32
2019-03-27T22:07:11.563Z,12.93
2019-03-27T22:09:40.016Z,13.25
2019-03-27T22:12:11.433Z,12.58
2019-03-27T22:14:39.903Z,12.03
2019-03-27T22:17:08.355Z,12.80
2019-03-27T22:19:36.793Z,12.18
2019-03-27T22:22:05.265Z,12.10
2019-03-27T22:24:33.721Z,12.88
2019-03-27T22:27:02.253Z,10.72
2019-03-27T22:29:30.712Z,10.98
2019-03-27T22:31:59.256Z,11.30
2019-03-27T22:34:27.712Z,11.28
2019-03-27T22:36:56.176Z,11.83
2019-03-27T22:39:24.620Z,11.45
2019-03-27T22:41:53.068Z,12.20
2019-03-27T22:44:21.528Z,12.37
2019-03-27T22:46:49.976Z,12.78
2019-03-27T22:49:18.437Z,13.72
2019-03-27T22:51:46.890Z,12.90
2019-03-27T22:54:15.354Z,11.60
2019-03-27T22:56:43.800Z,12.15
2019-03-27T22:59:12.258Z,11.30
2019-03-27T23:01:43.640Z,11.35
2019-03-27T23:04:12.098Z,11.00
2019-03-27T23:06:40.541Z,10.78
2019-03-27T23:09:09.151Z,11.90
2019-03-27T23:11:37.598Z,10.78
2019-03-27T23:14:06.115Z,11.10
2019-03-27T23:16:34.612Z,10.55
2019-03-27T23:19:03.079Z,11.28
2019-03-27T23:21:31.605Z,10.78
2019-03-27T23:24:00.184Z,10.35
2019-03-27T23:26:28.631Z,9.63
2019-03-27T23:28:57.082Z,10.08
2019-03-27T23:31:25.531Z,10.25
2019-03-27T23:33:54.003Z,10.00
2019-03-27T23:36:22.451Z,10.55
2019-03-27T23:38:50.911Z,9.43
2019-03-27T23:41:19.347Z,10.43
2019-03-27T23:43:47.817Z,9.58
2019-03-27T23:46:16.266Z,10.50
2019-03-27T23:48:44.790Z,9.25
2019-03-27T23:51:13.265Z,10.03
2019-03-27T23:53:41.778Z,9.53
2019-03-27T23:56:16.426Z,9.85
2019-03-27T23:58:40.409Z,10.70
